sensor_id;sensor_type;location;lat;lon;timestamp;P1;durP1;ratioP1;P2;durP2;ratioP2
6665;SDS011;3369;49.906;8.598;2022-10-22T00:00:42;2.63;;;1.97;;
6665;SDS011;3369;49.906;8.598;2022-10-22T00:03:08;3.50;;;2.10;;
6665;SDS011;3369;49.906;8.598;2022-10-22T00:05:34;4.63;;;2.50;;
6665;SDS011;3369;49.906;8.598;2022-10-22T00:08:00;4.13;;;2.40;;
6665;SDS011;3369;49.906;8.598;2022-10-22T00:10:26;4.50;;;2.00;;
6665;SDS011;3369;49.906;8.598;2022-10-22T00:12:52;2.47;;;1.77;;
6665;SDS011;3369;49.906;8.598;2022-10-22T00:15:17;2.63;;;1.80;;
6665;SDS011;3369;49.906;8.598;2022-10-22T00:17:43;2.17;;;1.80;;
6665;SDS011;3369;49.906;8.598;2022-10-22T00:20:09;4.27;;;2.37;;
6665;SDS011;3369;49.906;8.598;2022-10-22T00:22:35;3.90;;;1.87;;
6665;SDS011;3369;49.906;8.598;2022-10-22T00:25:00;2.07;;;1.87;;
6665;SDS011;3369;49.906;8.598;2022-10-22T00:27:26;3.50;;;1.97;;
6665;SDS011;3369;49.906;8.598;2022-10-22T00:29:52;2.70;;;2.00;;
6665;SDS011;3369;49.906;8.598;2022-10-22T00:32:18;2.20;;;1.87;;
6665;SDS011;3369;49.906;8.598;2022-10-22T00:34:43;2.47;;;1.80;;
6665;SDS011;3369;49.906;8.598;2022-10-22T00:37:09;3.60;;;2.03;;
6665;SDS011;3369;49.906;8.598;2022-10-22T00:39:35;4.30;;;2.13;;
6665;SDS011;3369;49.906;8.598;2022-10-22T00:42:00;4.37;;;2.03;;
6665;SDS011;3369;49.906;8.598;2022-10-22T00:47:26;3.13;;;1.83;;
6665;SDS011;3369;49.906;8.598;2022-10-22T00:49:55;3.23;;;1.90;;
6665;SDS011;3369;49.906;8.598;2022-10-22T00:52:22;3.40;;;1.83;;
6665;SDS011;3369;49.906;8.598;2022-10-22T00:54:49;12.30;;;2.30;;
6665;SDS011;3369;49.906;8.598;2022-10-22T00:57:15;6.00;;;1.50;;
6665;SDS011;3369;49.906;8.598;2022-10-22T00:59:43;3.60;;;2.10;;
6665;SDS011;3369;49.906;8.598;2022-10-22T01:02:09;4.73;;;1.73;;
6665;SDS011;3369;49.906;8.598;2022-10-22T01:04:35;2.97;;;1.93;;
6665;SDS011;3369;49.906;8.598;2022-10-22T01:07:00;2.90;;;1.73;;
6665;SDS011;3369;49.906;8.598;2022-10-22T01:14:45;5.07;;;2.00;;
6665;SDS011;3369;49.906;8.598;2022-10-22T01:31:37;3.53;;;1.70;;
6665;SDS011;3369;49.906;8.598;2022-10-22T01:34:08;6.77;;;2.33;;
6665;SDS011;3369;49.906;8.598;2022-10-22T01:36:36;2.70;;;1.67;;
6665;SDS011;3369;49.906;8.598;2022-10-22T01:39:03;3.50;;;1.40;;
6665;SDS011;3369;49.906;8.598;2022-10-22T01:41:30;3.60;;;1.60;;
6665;SDS011;3369;49.906;8.598;2022-10-22T01:43:56;4.40;;;1.43;;
6665;SDS011;3369;49.906;8.598;2022-10-22T01:46:22;1.50;;;1.40;;
6665;SDS011;3369;49.906;8.598;2022-10-22T01:48:53;2.30;;;1.23;;
6665;SDS011;3369;49.906;8.598;2022-10-22T01:54:39;3.20;;;1.13;;
6665;SDS011;3369;49.906;8.598;2022-10-22T02:05:47;1.30;;;1.20;;
6665;SDS011;3369;49.906;8.598;2022-10-22T02:08:26;3.80;;;1.67;;
6665;SDS011;3369;49.906;8.598;2022-10-22T02:10:55;4.63;;;1.10;;
6665;SDS011;3369;49.906;8.598;2022-10-22T02:13:33;3.33;;;1.23;;
6665;SDS011;3369;49.906;8.598;2022-10-22T02:16:03;1.90;;;1.07;;
6665;SDS011;3369;49.906;8.598;2022-10-22T02:38:54;2.90;;;1.30;;
6665;SDS011;3369;49.906;8.598;2022-10-22T02:41:20;3.13;;;1.00;;
6665;SDS011;3369;49.906;8.598;2022-10-22T02:43:51;1.20;;;1.03;;
6665;SDS011;3369;49.906;8.598;2022-10-22T02:46:18;1.00;;;0.73;;
6665;SDS011;3369;49.906;8.598;2022-10-22T02:48:44;2.63;;;0.90;;
6665;SDS011;3369;49.906;8.598;2022-10-22T02:51:10;7.37;;;0.80;;
6665;SDS011;3369;49.906;8.598;2022-10-22T02:53:36;1.00;;;0.90;;
6665;SDS011;3369;49.906;8.598;2022-10-22T02:56:01;1.00;;;0.90;;
6665;SDS011;3369;49.906;8.598;2022-10-22T02:58:27;0.80;;;0.80;;
6665;SDS011;3369;49.906;8.598;2022-10-22T03:00:53;1.40;;;1.10;;
6665;SDS011;3369;49.906;8.598;2022-10-22T03:03:18;1.03;;;0.80;;
6665;SDS011;3369;49.906;8.598;2022-10-22T03:05:44;0.90;;;0.90;;
6665;SDS011;3369;49.906;8.598;2022-10-22T03:08:10;1.77;;;1.00;;
6665;SDS011;3369;49.906;8.598;2022-10-22T03:10:35;2.30;;;0.87;;
6665;SDS011;3369;49.906;8.598;2022-10-22T03:13:01;0.80;;;0.80;;
6665;SDS011;3369;49.906;8.598;2022-10-22T03:15:27;0.90;;;0.90;;
6665;SDS011;3369;49.906;8.598;2022-10-22T03:17:53;1.60;;;1.00;;
6665;SDS011;3369;49.906;8.598;2022-10-22T03:20:18;0.83;;;0.83;;
6665;SDS011;3369;49.906;8.598;2022-10-22T03:22:44;1.77;;;0.97;;
6665;SDS011;3369;49.906;8.598;2022-10-22T03:25:11;1.50;;;1.00;;
6665;SDS011;3369;49.906;8.598;2022-10-22T03:27:40;0.80;;;0.80;;
6665;SDS011;3369;49.906;8.598;2022-10-22T03:30:07;1.23;;;0.93;;
6665;SDS011;3369;49.906;8.598;2022-10-22T03:32:33;0.80;;;0.80;;
6665;SDS011;3369;49.906;8.598;2022-10-22T03:34:59;0.70;;;0.70;;
6665;SDS011;3369;49.906;8.598;2022-10-22T03:37:25;2.53;;;0.90;;
6665;SDS011;3369;49.906;8.598;2022-10-22T03:39:51;0.87;;;0.87;;
6665;SDS011;3369;49.906;8.598;2022-10-22T03:42:18;1.73;;;0.80;;
6665;SDS011;3369;49.906;8.598;2022-10-22T03:44:44;1.70;;;0.80;;
6665;SDS011;3369;49.906;8.598;2022-10-22T03:47:10;1.37;;;1.00;;
6665;SDS011;3369;49.906;8.598;2022-10-22T03:49:36;1.47;;;0.90;;
6665;SDS011;3369;49.906;8.598;2022-10-22T03:52:08;1.10;;;1.00;;
6665;SDS011;3369;49.906;8.598;2022-10-22T03:54:36;0.67;;;0.67;;
6665;SDS011;3369;49.906;8.598;2022-10-22T03:57:03;0.80;;;0.80;;
6665;SDS011;3369;49.906;8.598;2022-10-22T03:59:42;1.30;;;1.10;;
6665;SDS011;3369;49.906;8.598;2022-10-22T04:02:10;1.37;;;1.00;;
6665;SDS011;3369;49.906;8.598;2022-10-22T04:04:37;1.80;;;1.00;;
6665;SDS011;3369;49.906;8.598;2022-10-22T04:07:03;0.90;;;0.90;;
6665;SDS011;3369;49.906;8.598;2022-10-22T04:09:31;1.03;;;0.90;;
6665;SDS011;3369;49.906;8.598;2022-10-22T04:11:57;2.93;;;1.10;;
6665;SDS011;3369;49.906;8.598;2022-10-22T04:14:24;2.00;;;1.00;;
6665;SDS011;3369;49.906;8.598;2022-10-22T04:16:49;0.80;;;0.80;;
6665;SDS011;3369;49.906;8.598;2022-10-22T04:19:15;1.23;;;0.80;;
6665;SDS011;3369;49.906;8.598;2022-10-22T04:21:41;1.40;;;1.30;;
6665;SDS011;3369;49.906;8.598;2022-10-22T04:24:07;1.93;;;1.20;;
6665;SDS011;3369;49.906;8.598;2022-10-22T04:26:32;1.33;;;1.10;;
6665;SDS011;3369;49.906;8.598;2022-10-22T04:28:58;2.27;;;1.10;;
6665;SDS011;3369;49.906;8.598;2022-10-22T04:31:24;2.17;;;1.00;;
6665;SDS011;3369;49.906;8.598;2022-10-22T04:33:57;1.10;;;1.00;;
6665;SDS011;3369;49.906;8.598;2022-10-22T04:36:24;0.80;;;0.80;;
6665;SDS011;3369;49.906;8.598;2022-10-22T04:38:52;1.43;;;1.00;;
6665;SDS011;3369;49.906;8.598;2022-10-22T04:41:20;1.70;;;0.80;;
6665;SDS011;3369;49.906;8.598;2022-10-22T04:43:54;1.03;;;0.90;;
6665;SDS011;3369;49.906;8.598;2022-10-22T04:46:21;1.43;;;1.20;;
6665;SDS011;3369;49.906;8.598;2022-10-22T04:48:47;1.50;;;1.20;;
6665;SDS011;3369;49.906;8.598;2022-10-22T04:51:15;2.50;;;0.93;;
6665;SDS011;3369;49.906;8.598;2022-10-22T04:53:42;2.70;;;1.40;;
6665;SDS011;3369;49.906;8.598;2022-10-22T04:56:13;1.80;;;0.90;;
6665;SDS011;3369;49.906;8.598;2022-10-22T04:58:41;1.80;;;0.90;;
6665;SDS011;3369;49.906;8.598;2022-10-22T05:01:09;3.37;;;1.37;;
6665;SDS011;3369;49.906;8.598;2022-10-22T05:03:36;2.60;;;1.10;;
6665;SDS011;3369;49.906;8.598;2022-10-22T05:06:02;0.80;;;0.80;;
6665;SDS011;3369;49.906;8.598;2022-10-22T05:08:28;1.43;;;0.90;;
6665;SDS011;3369;49.906;8.598;2022-10-22T05:10:53;1.03;;;0.90;;
6665;SDS011;3369;49.906;8.598;2022-10-22T05:13:19;1.00;;;1.00;;
6665;SDS011;3369;49.906;8.598;2022-10-22T05:15:45;1.70;;;1.10;;
6665;SDS011;3369;49.906;8.598;2022-10-22T05:18:10;1.17;;;1.07;;
6665;SDS011;3369;49.906;8.598;2022-10-22T05:20:39;2.00;;;0.90;;
6665;SDS011;3369;49.906;8.598;2022-10-22T05:23:06;2.10;;;1.60;;
6665;SDS011;3369;49.906;8.598;2022-10-22T05:25:35;1.33;;;1.10;;
6665;SDS011;3369;49.906;8.598;2022-10-22T05:28:04;0.77;;;0.77;;
6665;SDS011;3369;49.906;8.598;2022-10-22T05:30:30;1.83;;;1.00;;
6665;SDS011;3369;49.906;8.598;2022-10-22T05:32:56;0.93;;;0.93;;
6665;SDS011;3369;49.906;8.598;2022-10-22T05:35:21;1.10;;;1.00;;
6665;SDS011;3369;49.906;8.598;2022-10-22T05:37:47;1.10;;;0.80;;
6665;SDS011;3369;49.906;8.598;2022-10-22T05:40:13;0.80;;;0.80;;
6665;SDS011;3369;49.906;8.598;2022-10-22T05:42:38;1.43;;;1.10;;
6665;SDS011;3369;49.906;8.598;2022-10-22T05:45:04;1.10;;;1.00;;
6665;SDS011;3369;49.906;8.598;2022-10-22T05:47:30;0.97;;;0.80;;
6665;SDS011;3369;49.906;8.598;2022-10-22T05:49:56;0.80;;;0.80;;
6665;SDS011;3369;49.906;8.598;2022-10-22T05:52:22;1.00;;;1.00;;
6665;SDS011;3369;49.906;8.598;2022-10-22T05:54:48;1.47;;;1.00;;
6665;SDS011;3369;49.906;8.598;2022-10-22T05:57:14;5.77;;;1.20;;
6665;SDS011;3369;49.906;8.598;2022-10-22T05:59:40;0.70;;;0.70;;
6665;SDS011;3369;49.906;8.598;2022-10-22T06:02:07;2.50;;;1.00;;
6665;SDS011;3369;49.906;8.598;2022-10-22T06:04:33;2.20;;;1.00;;
6665;SDS011;3369;49.906;8.598;2022-10-22T06:06:59;0.73;;;0.73;;
6665;SDS011;3369;49.906;8.598;2022-10-22T06:09:27;1.00;;;0.90;;
6665;SDS011;3369;49.906;8.598;2022-10-22T06:11:59;1.43;;;0.77;;
6665;SDS011;3369;49.906;8.598;2022-10-22T06:14:25;2.87;;;1.07;;
6665;SDS011;3369;49.906;8.598;2022-10-22T06:16:52;3.13;;;1.00;;
6665;SDS011;3369;49.906;8.598;2022-10-22T06:19:19;3.63;;;1.00;;
6665;SDS011;3369;49.906;8.598;2022-10-22T06:21:46;1.80;;;0.90;;
6665;SDS011;3369;49.906;8.598;2022-10-22T06:24:12;0.97;;;0.80;;
6665;SDS011;3369;49.906;8.598;2022-10-22T06:26:39;3.13;;;0.90;;
6665;SDS011;3369;49.906;8.598;2022-10-22T06:29:05;0.80;;;0.73;;
6665;SDS011;3369;49.906;8.598;2022-10-22T06:31:31;0.93;;;0.70;;
6665;SDS011;3369;49.906;8.598;2022-10-22T06:34:04;2.10;;;0.80;;
6665;SDS011;3369;49.906;8.598;2022-10-22T06:36:32;0.80;;;0.63;;
6665;SDS011;3369;49.906;8.598;2022-10-22T06:38:58;0.60;;;0.60;;
6665;SDS011;3369;49.906;8.598;2022-10-22T06:41:23;1.67;;;0.70;;
6665;SDS011;3369;49.906;8.598;2022-10-22T06:43:49;1.53;;;1.00;;
6665;SDS011;3369;49.906;8.598;2022-10-22T06:46:16;0.80;;;0.80;;
6665;SDS011;3369;49.906;8.598;2022-10-22T06:48:47;0.77;;;0.77;;
6665;SDS011;3369;49.906;8.598;2022-10-22T06:51:16;0.83;;;0.80;;
6665;SDS011;3369;49.906;8.598;2022-10-22T06:53:42;0.87;;;0.87;;
6665;SDS011;3369;49.906;8.598;2022-10-22T06:56:09;1.07;;;0.80;;
6665;SDS011;3369;49.906;8.598;2022-10-22T06:58:36;0.70;;;0.70;;
6665;SDS011;3369;49.906;8.598;2022-10-22T07:01:09;0.73;;;0.73;;
6665;SDS011;3369;49.906;8.598;2022-10-22T07:03:37;3.53;;;0.90;;
6665;SDS011;3369;49.906;8.598;2022-10-22T07:06:05;2.60;;;0.90;;
6665;SDS011;3369;49.906;8.598;2022-10-22T07:08:36;1.57;;;0.70;;
6665;SDS011;3369;49.906;8.598;2022-10-22T07:11:06;1.43;;;0.80;;
6665;SDS011;3369;49.906;8.598;2022-10-22T07:13:40;0.70;;;0.70;;
6665;SDS011;3369;49.906;8.598;2022-10-22T07:16:06;1.10;;;1.00;;
6665;SDS011;3369;49.906;8.598;2022-10-22T07:18:33;3.20;;;0.80;;
6665;SDS011;3369;49.906;8.598;2022-10-22T07:21:00;0.83;;;0.83;;
6665;SDS011;3369;49.906;8.598;2022-10-22T07:23:26;1.10;;;0.73;;
6665;SDS011;3369;49.906;8.598;2022-10-22T07:25:52;1.50;;;1.40;;
6665;SDS011;3369;49.906;8.598;2022-10-22T07:28:18;2.57;;;0.83;;
6665;SDS011;3369;49.906;8.598;2022-10-22T07:30:44;0.67;;;0.67;;
6665;SDS011;3369;49.906;8.598;2022-10-22T07:33:09;1.70;;;0.63;;
6665;SDS011;3369;49.906;8.598;2022-10-22T07:35:36;1.03;;;0.70;;
6665;SDS011;3369;49.906;8.598;2022-10-22T07:38:02;0.77;;;0.77;;
6665;SDS011;3369;49.906;8.598;2022-10-22T07:40:28;1.60;;;0.90;;
6665;SDS011;3369;49.906;8.598;2022-10-22T07:42:54;0.50;;;0.50;;
6665;SDS011;3369;49.906;8.598;2022-10-22T07:45:20;1.97;;;1.10;;
6665;SDS011;3369;49.906;8.598;2022-10-22T07:47:46;0.80;;;0.80;;
6665;SDS011;3369;49.906;8.598;2022-10-22T07:50:12;2.47;;;0.90;;
6665;SDS011;3369;49.906;8.598;2022-10-22T07:52:38;0.60;;;0.60;;
6665;SDS011;3369;49.906;8.598;2022-10-22T07:55:04;2.10;;;0.80;;
6665;SDS011;3369;49.906;8.598;2022-10-22T07:57:30;1.80;;;0.77;;
6665;SDS011;3369;49.906;8.598;2022-10-22T07:59:56;0.97;;;0.70;;
6665;SDS011;3369;49.906;8.598;2022-10-22T08:02:22;0.97;;;0.60;;
6665;SDS011;3369;49.906;8.598;2022-10-22T08:04:49;0.93;;;0.70;;
6665;SDS011;3369;49.906;8.598;2022-10-22T08:07:15;0.80;;;0.80;;
6665;SDS011;3369;49.906;8.598;2022-10-22T08:09:41;0.93;;;0.60;;
6665;SDS011;3369;49.906;8.598;2022-10-22T08:12:07;0.83;;;0.83;;
6665;SDS011;3369;49.906;8.598;2022-10-22T08:14:33;0.60;;;0.60;;
6665;SDS011;3369;49.906;8.598;2022-10-22T08:16:58;2.97;;;0.80;;
6665;SDS011;3369;49.906;8.598;2022-10-22T08:19:24;2.47;;;0.63;;
6665;SDS011;3369;49.906;8.598;2022-10-22T08:21:50;0.70;;;0.70;;
6665;SDS011;3369;49.906;8.598;2022-10-22T08:24:16;1.83;;;0.70;;
6665;SDS011;3369;49.906;8.598;2022-10-22T08:26:42;0.50;;;0.50;;
6665;SDS011;3369;49.906;8.598;2022-10-22T08:29:07;2.13;;;0.83;;
6665;SDS011;3369;49.906;8.598;2022-10-22T08:31:33;2.27;;;0.70;;
6665;SDS011;3369;49.906;8.598;2022-10-22T08:33:59;2.70;;;0.70;;
6665;SDS011;3369;49.906;8.598;2022-10-22T08:36:25;0.87;;;0.83;;
6665;SDS011;3369;49.906;8.598;2022-10-22T08:38:51;0.67;;;0.67;;
6665;SDS011;3369;49.906;8.598;2022-10-22T08:41:17;2.87;;;0.77;;
6665;SDS011;3369;49.906;8.598;2022-10-22T08:44:02;0.90;;;0.90;;
6665;SDS011;3369;49.906;8.598;2022-10-22T08:49:29;3.00;;;1.03;;
6665;SDS011;3369;49.906;8.598;2022-10-22T08:51:58;1.03;;;0.67;;
6665;SDS011;3369;49.906;8.598;2022-10-22T08:54:46;2.40;;;0.73;;
6665;SDS011;3369;49.906;8.598;2022-10-22T09:06:08;1.77;;;0.80;;
6665;SDS011;3369;49.906;8.598;2022-10-22T09:08:20;1.43;;;0.70;;
6665;SDS011;3369;49.906;8.598;2022-10-22T09:10:47;0.80;;;0.80;;
6665;SDS011;3369;49.906;8.598;2022-10-22T09:13:17;4.03;;;0.87;;
6665;SDS011;3369;49.906;8.598;2022-10-22T09:15:46;1.73;;;0.80;;
6665;SDS011;3369;49.906;8.598;2022-10-22T09:18:37;1.60;;;0.90;;
6665;SDS011;3369;49.906;8.598;2022-10-22T09:24:03;9.30;;;1.20;;
6665;SDS011;3369;49.906;8.598;2022-10-22T09:26:49;1.70;;;1.20;;
6665;SDS011;3369;49.906;8.598;2022-10-22T09:29:19;0.90;;;0.90;;
6665;SDS011;3369;49.906;8.598;2022-10-22T09:31:49;2.10;;;0.90;;
6665;SDS011;3369;49.906;8.598;2022-10-22T09:34:16;3.43;;;1.00;;
6665;SDS011;3369;49.906;8.598;2022-10-22T09:36:44;2.67;;;0.70;;
6665;SDS011;3369;49.906;8.598;2022-10-22T09:39:24;1.50;;;1.00;;
6665;SDS011;3369;49.906;8.598;2022-10-22T09:41:51;1.37;;;0.80;;
6665;SDS011;3369;49.906;8.598;2022-10-22T09:44:17;2.70;;;0.90;;
6665;SDS011;3369;49.906;8.598;2022-10-22T09:46:44;1.80;;;0.60;;
6665;SDS011;3369;49.906;8.598;2022-10-22T09:49:11;1.70;;;0.90;;
6665;SDS011;3369;49.906;8.598;2022-10-22T09:51:45;1.80;;;0.63;;
6665;SDS011;3369;49.906;8.598;2022-10-22T09:56:57;0.60;;;0.50;;
6665;SDS011;3369;49.906;8.598;2022-10-22T09:59:37;3.07;;;0.90;;
6665;SDS011;3369;49.906;8.598;2022-10-22T10:04:32;2.60;;;1.00;;
6665;SDS011;3369;49.906;8.598;2022-10-22T10:07:00;1.20;;;0.80;;
6665;SDS011;3369;49.906;8.598;2022-10-22T10:09:25;2.20;;;0.80;;
6665;SDS011;3369;49.906;8.598;2022-10-22T10:11:58;1.70;;;1.00;;
6665;SDS011;3369;49.906;8.598;2022-10-22T10:19:58;1.77;;;1.17;;
6665;SDS011;3369;49.906;8.598;2022-10-22T10:34:10;2.20;;;0.77;;
6665;SDS011;3369;49.906;8.598;2022-10-22T10:39:26;1.53;;;0.80;;
6665;SDS011;3369;49.906;8.598;2022-10-22T10:42:17;1.90;;;0.80;;
6665;SDS011;3369;49.906;8.598;2022-10-22T10:55:41;3.57;;;1.10;;
6665;SDS011;3369;49.906;8.598;2022-10-22T11:01:18;2.27;;;0.80;;
6665;SDS011;3369;49.906;8.598;2022-10-22T11:06:51;1.43;;;1.00;;
6665;SDS011;3369;49.906;8.598;2022-10-22T11:09:25;4.00;;;1.17;;
6665;SDS011;3369;49.906;8.598;2022-10-22T11:11:54;3.23;;;1.13;;
6665;SDS011;3369;49.906;8.598;2022-10-22T11:14:29;1.27;;;0.80;;
6665;SDS011;3369;49.906;8.598;2022-10-22T11:17:15;2.93;;;1.30;;
6665;SDS011;3369;49.906;8.598;2022-10-22T11:22:31;4.43;;;1.20;;
6665;SDS011;3369;49.906;8.598;2022-10-22T11:25:23;4.73;;;1.00;;
6665;SDS011;3369;49.906;8.598;2022-10-22T11:30:27;2.17;;;1.50;;
6665;SDS011;3369;49.906;8.598;2022-10-22T11:32:59;4.17;;;1.00;;
6665;SDS011;3369;49.906;8.598;2022-10-22T11:35:30;3.83;;;1.30;;
6665;SDS011;3369;49.906;8.598;2022-10-22T11:37:59;2.37;;;1.10;;
6665;SDS011;3369;49.906;8.598;2022-10-22T11:40:43;3.13;;;1.10;;
6665;SDS011;3369;49.906;8.598;2022-10-22T11:48:44;2.67;;;1.03;;
6665;SDS011;3369;49.906;8.598;2022-10-22T11:51:34;3.03;;;0.90;;
6665;SDS011;3369;49.906;8.598;2022-10-22T11:54:46;2.73;;;1.13;;
6665;SDS011;3369;49.906;8.598;2022-10-22T11:59:49;2.80;;;1.23;;
6665;SDS011;3369;49.906;8.598;2022-10-22T12:02:30;1.33;;;0.87;;
6665;SDS011;3369;49.906;8.598;2022-10-22T12:05:16;2.40;;;1.00;;
6665;SDS011;3369;49.906;8.598;2022-10-22T12:10:18;2.57;;;1.00;;
6665;SDS011;3369;49.906;8.598;2022-10-22T12:13:20;1.37;;;0.90;;
6665;SDS011;3369;49.906;8.598;2022-10-22T12:15:48;2.87;;;0.90;;
6665;SDS011;3369;49.906;8.598;2022-10-22T12:18:18;2.77;;;1.00;;
6665;SDS011;3369;49.906;8.598;2022-10-22T12:20:50;1.47;;;0.80;;
6665;SDS011;3369;49.906;8.598;2022-10-22T12:23:18;1.87;;;1.00;;
6665;SDS011;3369;49.906;8.598;2022-10-22T12:25:48;4.37;;;1.43;;
6665;SDS011;3369;49.906;8.598;2022-10-22T12:28:14;2.23;;;1.00;;
6665;SDS011;3369;49.906;8.598;2022-10-22T12:30:40;2.20;;;1.30;;
6665;SDS011;3369;49.906;8.598;2022-10-22T12:33:07;1.77;;;1.00;;
6665;SDS011;3369;49.906;8.598;2022-10-22T12:35:48;1.67;;;1.03;;
6665;SDS011;3369;49.906;8.598;2022-10-22T12:38:18;1.93;;;0.80;;
6665;SDS011;3369;49.906;8.598;2022-10-22T12:40:46;1.70;;;0.90;;
6665;SDS011;3369;49.906;8.598;2022-10-22T12:43:18;2.80;;;0.90;;
6665;SDS011;3369;49.906;8.598;2022-10-22T12:45:49;2.73;;;1.30;;
6665;SDS011;3369;49.906;8.598;2022-10-22T12:48:19;2.73;;;1.10;;
6665;SDS011;3369;49.906;8.598;2022-10-22T12:50:50;1.20;;;0.80;;
6665;SDS011;3369;49.906;8.598;2022-10-22T12:53:18;2.80;;;0.83;;
6665;SDS011;3369;49.906;8.598;2022-10-22T12:55:51;2.80;;;1.03;;
6665;SDS011;3369;49.906;8.598;2022-10-22T12:58:19;2.07;;;1.00;;
6665;SDS011;3369;49.906;8.598;2022-10-22T13:00:54;3.20;;;1.10;;
6665;SDS011;3369;49.906;8.598;2022-10-22T13:11:33;3.13;;;1.10;;
6665;SDS011;3369;49.906;8.598;2022-10-22T13:14:04;4.17;;;1.10;;
6665;SDS011;3369;49.906;8.598;2022-10-22T13:17:01;5.50;;;1.30;;
6665;SDS011;3369;49.906;8.598;2022-10-22T13:19:35;1.57;;;0.87;;
6665;SDS011;3369;49.906;8.598;2022-10-22T13:22:00;2.13;;;0.90;;
6665;SDS011;3369;49.906;8.598;2022-10-22T13:24:26;5.30;;;1.30;;
6665;SDS011;3369;49.906;8.598;2022-10-22T13:26:54;2.63;;;1.20;;
6665;SDS011;3369;49.906;8.598;2022-10-22T13:29:20;3.53;;;1.10;;
6665;SDS011;3369;49.906;8.598;2022-10-22T13:31:48;4.67;;;1.37;;
6665;SDS011;3369;49.906;8.598;2022-10-22T13:34:17;1.50;;;1.27;;
6665;SDS011;3369;49.906;8.598;2022-10-22T13:36:45;4.77;;;1.67;;
6665;SDS011;3369;49.906;8.598;2022-10-22T13:39:12;3.23;;;1.17;;
6665;SDS011;3369;49.906;8.598;2022-10-22T13:41:45;3.33;;;0.80;;
6665;SDS011;3369;49.906;8.598;2022-10-22T13:44:11;4.07;;;1.00;;
6665;SDS011;3369;49.906;8.598;2022-10-22T13:46:37;5.30;;;1.40;;
6665;SDS011;3369;49.906;8.598;2022-10-22T13:49:06;4.13;;;1.33;;
6665;SDS011;3369;49.906;8.598;2022-10-22T13:51:40;4.50;;;1.23;;
6665;SDS011;3369;49.906;8.598;2022-10-22T13:54:12;6.23;;;1.20;;
6665;SDS011;3369;49.906;8.598;2022-10-22T13:56:43;2.30;;;0.70;;
6665;SDS011;3369;49.906;8.598;2022-10-22T13:59:09;2.57;;;1.00;;
6665;SDS011;3369;49.906;8.598;2022-10-22T14:01:35;5.90;;;1.27;;
6665;SDS011;3369;49.906;8.598;2022-10-22T14:04:02;2.50;;;1.30;;
6665;SDS011;3369;49.906;8.598;2022-10-22T14:06:30;3.13;;;0.90;;
6665;SDS011;3369;49.906;8.598;2022-10-22T14:08:58;27.10;;;1.57;;
6665;SDS011;3369;49.906;8.598;2022-10-22T14:11:26;3.87;;;1.27;;
6665;SDS011;3369;49.906;8.598;2022-10-22T14:13:53;1.90;;;1.23;;
6665;SDS011;3369;49.906;8.598;2022-10-22T14:16:19;4.23;;;1.50;;
6665;SDS011;3369;49.906;8.598;2022-10-22T14:18:50;4.33;;;1.13;;
6665;SDS011;3369;49.906;8.598;2022-10-22T14:21:16;2.17;;;1.10;;
6665;SDS011;3369;49.906;8.598;2022-10-22T14:23:44;2.73;;;1.17;;
6665;SDS011;3369;49.906;8.598;2022-10-22T14:26:19;3.93;;;1.27;;
6665;SDS011;3369;49.906;8.598;2022-10-22T14:28:47;3.00;;;1.43;;
6665;SDS011;3369;49.906;8.598;2022-10-22T14:31:13;3.10;;;1.00;;
6665;SDS011;3369;49.906;8.598;2022-10-22T14:33:39;1.93;;;1.10;;
6665;SDS011;3369;49.906;8.598;2022-10-22T14:54:30;4.23;;;1.60;;
6665;SDS011;3369;49.906;8.598;2022-10-22T14:56:57;2.07;;;0.90;;
6665;SDS011;3369;49.906;8.598;2022-10-22T14:59:22;2.70;;;0.70;;
6665;SDS011;3369;49.906;8.598;2022-10-22T15:01:48;2.93;;;1.10;;
6665;SDS011;3369;49.906;8.598;2022-10-22T15:04:14;3.17;;;0.90;;
6665;SDS011;3369;49.906;8.598;2022-10-22T15:06:40;3.27;;;0.97;;
6665;SDS011;3369;49.906;8.598;2022-10-22T15:09:05;1.63;;;1.00;;
6665;SDS011;3369;49.906;8.598;2022-10-22T15:11:31;3.10;;;1.10;;
6665;SDS011;3369;49.906;8.598;2022-10-22T15:13:57;3.63;;;1.00;;
6665;SDS011;3369;49.906;8.598;2022-10-22T15:16:23;4.13;;;1.10;;
6665;SDS011;3369;49.906;8.598;2022-10-22T15:18:48;3.17;;;0.87;;
6665;SDS011;3369;49.906;8.598;2022-10-22T15:21:17;2.60;;;1.13;;
6665;SDS011;3369;49.906;8.598;2022-10-22T15:23:44;1.30;;;1.00;;
6665;SDS011;3369;49.906;8.598;2022-10-22T15:26:10;2.53;;;1.17;;
6665;SDS011;3369;49.906;8.598;2022-10-22T15:28:37;3.90;;;0.87;;
6665;SDS011;3369;49.906;8.598;2022-10-22T15:31:04;4.80;;;1.03;;
6665;SDS011;3369;49.906;8.598;2022-10-22T15:33:30;2.33;;;0.90;;
6665;SDS011;3369;49.906;8.598;2022-10-22T15:35:56;2.37;;;1.10;;
6665;SDS011;3369;49.906;8.598;2022-10-22T15:38:28;2.13;;;1.10;;
6665;SDS011;3369;49.906;8.598;2022-10-22T15:41:04;3.53;;;1.07;;
6665;SDS011;3369;49.906;8.598;2022-10-22T15:43:32;3.47;;;1.00;;
6665;SDS011;3369;49.906;8.598;2022-10-22T15:46:14;2.63;;;1.03;;
6665;SDS011;3369;49.906;8.598;2022-10-22T15:48:44;1.87;;;1.10;;
6665;SDS011;3369;49.906;8.598;2022-10-22T15:51:11;1.30;;;1.17;;
6665;SDS011;3369;49.906;8.598;2022-10-22T15:53:42;2.73;;;1.27;;
6665;SDS011;3369;49.906;8.598;2022-10-22T15:56:09;4.40;;;1.13;;
6665;SDS011;3369;49.906;8.598;2022-10-22T15:58:38;4.13;;;1.33;;
6665;SDS011;3369;49.906;8.598;2022-10-22T16:01:08;0.73;;;0.70;;
6665;SDS011;3369;49.906;8.598;2022-10-22T16:03:35;1.80;;;1.00;;
6665;SDS011;3369;49.906;8.598;2022-10-22T16:06:02;1.43;;;1.10;;
6665;SDS011;3369;49.906;8.598;2022-10-22T16:08:28;3.20;;;1.20;;
6665;SDS011;3369;49.906;8.598;2022-10-22T16:10:55;1.57;;;1.00;;
6665;SDS011;3369;49.906;8.598;2022-10-22T16:13:21;1.70;;;1.20;;
6665;SDS011;3369;49.906;8.598;2022-10-22T16:15:49;1.87;;;1.00;;
6665;SDS011;3369;49.906;8.598;2022-10-22T16:18:15;2.33;;;1.03;;
6665;SDS011;3369;49.906;8.598;2022-10-22T16:20:42;2.40;;;0.93;;
6665;SDS011;3369;49.906;8.598;2022-10-22T16:23:07;2.33;;;1.00;;
6665;SDS011;3369;49.906;8.598;2022-10-22T16:25:37;1.80;;;1.30;;
6665;SDS011;3369;49.906;8.598;2022-10-22T16:28:03;3.90;;;1.23;;
6665;SDS011;3369;49.906;8.598;2022-10-22T16:30:31;1.77;;;1.00;;
6665;SDS011;3369;49.906;8.598;2022-10-22T16:32:58;2.77;;;1.23;;
6665;SDS011;3369;49.906;8.598;2022-10-22T16:35:25;1.70;;;1.10;;
6665;SDS011;3369;49.906;8.598;2022-10-22T16:37:50;1.70;;;1.23;;
6665;SDS011;3369;49.906;8.598;2022-10-22T16:40:16;3.00;;;1.10;;
6665;SDS011;3369;49.906;8.598;2022-10-22T16:42:42;1.90;;;1.50;;
6665;SDS011;3369;49.906;8.598;2022-10-22T16:45:08;1.30;;;0.70;;
6665;SDS011;3369;49.906;8.598;2022-10-22T16:47:35;0.90;;;0.90;;
6665;SDS011;3369;49.906;8.598;2022-10-22T16:50:00;1.97;;;1.00;;
6665;SDS011;3369;49.906;8.598;2022-10-22T16:52:26;0.90;;;0.90;;
6665;SDS011;3369;49.906;8.598;2022-10-22T16:54:52;1.00;;;1.00;;
6665;SDS011;3369;49.906;8.598;2022-10-22T16:57:17;1.50;;;1.00;;
6665;SDS011;3369;49.906;8.598;2022-10-22T16:59:43;1.17;;;0.97;;
6665;SDS011;3369;49.906;8.598;2022-10-22T17:02:09;1.60;;;1.50;;
6665;SDS011;3369;49.906;8.598;2022-10-22T17:04:35;2.10;;;1.30;;
6665;SDS011;3369;49.906;8.598;2022-10-22T17:07:01;2.20;;;1.30;;
6665;SDS011;3369;49.906;8.598;2022-10-22T17:09:27;1.53;;;1.20;;
6665;SDS011;3369;49.906;8.598;2022-10-22T17:11:52;1.33;;;1.23;;
6665;SDS011;3369;49.906;8.598;2022-10-22T17:14:18;2.27;;;1.30;;
6665;SDS011;3369;49.906;8.598;2022-10-22T17:16:44;3.57;;;1.67;;
6665;SDS011;3369;49.906;8.598;2022-10-22T17:19:13;1.40;;;1.30;;
6665;SDS011;3369;49.906;8.598;2022-10-22T17:21:40;2.20;;;1.40;;
6665;SDS011;3369;49.906;8.598;2022-10-22T17:24:06;1.83;;;1.60;;
6665;SDS011;3369;49.906;8.598;2022-10-22T17:26:31;1.67;;;1.57;;
6665;SDS011;3369;49.906;8.598;2022-10-22T17:28:58;2.50;;;1.80;;
6665;SDS011;3369;49.906;8.598;2022-10-22T17:33:52;2.40;;;1.63;;
6665;SDS011;3369;49.906;8.598;2022-10-22T17:36:19;1.90;;;1.50;;
6665;SDS011;3369;49.906;8.598;2022-10-22T17:38:47;1.60;;;1.40;;
6665;SDS011;3369;49.906;8.598;2022-10-22T17:41:19;2.20;;;1.70;;
6665;SDS011;3369;49.906;8.598;2022-10-22T17:43:48;3.30;;;1.87;;
6665;SDS011;3369;49.906;8.598;2022-10-22T17:46:24;3.00;;;1.70;;
6665;SDS011;3369;49.906;8.598;2022-10-22T17:48:54;4.43;;;2.17;;
6665;SDS011;3369;49.906;8.598;2022-10-22T17:51:22;3.17;;;1.77;;
6665;SDS011;3369;49.906;8.598;2022-10-22T17:53:50;3.30;;;1.70;;
6665;SDS011;3369;49.906;8.598;2022-10-22T17:56:25;1.57;;;1.27;;
6665;SDS011;3369;49.906;8.598;2022-10-22T17:58:53;4.37;;;2.10;;